Česky Dansk Deutsch English Español Suomi Français Magyar Italiano Nederlands norsk Polski Português svenska Türkçe

 

Het Weer

Chimbote (Peru)

15:00, 12 November 2012 (GMT)

 
WE
 
Home            
Chimbote Anta Huaraz Trujillo Cajamarca Tingo Maria Juanjui Chiclayo Huanuco Chachapoyas Lima-Callao / Aerop. Internacional Jorgechavez Rioja Tarapoto Pucallpa Yurimaguas Piura Atalaya Macara / J. M. Velasco I. Pisco Catamayo / Camilo Ponce Enriquez Talara Ayacucho Tumbes Cruzeiro Do Sul

Om een weerknop op uw website of weblog te plaatsen, copieer onderstaande code en plak die in uw pagina. In het eerste vakje staat HTML-code, in het tweede vakje UBB-code.


Add to Google

Details

Wind speed:4 bf, 13 kn, 6.7 m/s, 15.0 miles/h, 24.1 km/h
Wind direction:S, 190°
Visibility:Greater than 10000 m, 10 km, 32800 ft, 6.2 miles
Clouds:CAVOC
Temperature:23°C, 73°F
Gefühlte Temperatur:24°C, 76°F
Dew-point:16°C, 61°F
Atmospheric pressure:1014 hPa, 760.6 mmHg, 29.94 inHg, 1.001 atm
Relative humidity:64.7 %
METAR:SPEO 121500Z 19013KT CAVOK 23/16 Q1014 RMK BIRD HAZARD RWY 01 PP000

Snelkoppelingen

Actuele weersinformatie van de hele wereld. Voeg locaties toe met het plus (+) symbool. Deze snelkoppelingen kunnen worden toegevoegd aan Google.

Lid van de Technetium groep

website free tracking
StatCounter NetStat W3C Validator

18-03-2019 11:05:44
astro.technetium.be money.technetium.be phote.technetium.be tafeltennistafel.technetium.be www.ligfiets.net